Time;durP1;ratioP1;P1;durP2;ratioP2;P2;SDS_P1;SDS_P2;PMS_P1;PMS_P2;Temp;Humidity;BMP_temperature;BMP_pressure;BME280_temperature;BME280_humidity;BME280_pressure;Samples;Min_cycle;Max_cycle;Signal;HPM_P1;HPM_P2
2023/05/21 00:02:18;;;;;;;17.30;11.75;;;;;;;13.01;100.00;96899.72;4986902;28;20065;-52
2023/05/21 00:04:46;;;;;;;17.17;12.55;;;;;;;12.99;100.00;96905.47;4981266;28;20325;-55
2023/05/21 00:07:14;;;;;;;17.10;12.15;;;;;;;13.00;100.00;96904.34;4982149;28;20402;-55
2023/05/21 00:09:40;;;;;;;17.60;12.50;;;;;;;13.01;100.00;96905.16;4981256;28;20047;-52
2023/05/21 00:12:08;;;;;;;18.60;12.93;;;;;;;12.91;100.00;96899.78;4985223;28;20046;-52
2023/05/21 00:14:34;;;;;;;17.50;12.55;;;;;;;12.88;100.00;96893.81;4983124;28;20050;-57
2023/05/21 00:17:01;;;;;;;19.52;13.02;;;;;;;12.97;100.00;96898.69;4985633;28;20060;-53
2023/05/21 00:19:28;;;;;;;16.00;12.43;;;;;;;13.00;100.00;96888.06;4981113;28;20512;-52
2023/05/21 00:21:54;;;;;;;16.02;13.00;;;;;;;13.10;100.00;96887.19;4982984;28;20034;-51
2023/05/21 00:24:21;;;;;;;17.17;12.73;;;;;;;13.14;100.00;96890.16;4986600;28;20120;-56
2023/05/21 00:26:47;;;;;;;19.58;14.60;;;;;;;13.20;100.00;96882.78;4982256;28;20050;-53
2023/05/21 00:29:14;;;;;;;17.30;12.50;;;;;;;13.21;100.00;96887.13;4982497;28;20038;-55
2023/05/21 00:31:41;;;;;;;20.15;13.13;;;;;;;13.31;100.00;96880.81;4978437;28;20046;-54
2023/05/21 00:34:08;;;;;;;17.27;12.70;;;;;;;13.30;100.00;96876.47;4984059;28;20038;-55
2023/05/21 00:36:34;;;;;;;18.70;13.63;;;;;;;13.29;100.00;96875.66;4984438;28;20137;-52
2023/05/21 00:39:01;;;;;;;17.63;13.45;;;;;;;13.09;100.00;96869.22;4982512;28;20046;-49
2023/05/21 00:41:29;;;;;;;19.55;14.13;;;;;;;12.93;100.00;96873.94;4990441;28;20451;-55
2023/05/21 00:43:59;;;;;;;17.92;13.07;;;;;;;12.86;100.00;96874.25;4979576;28;20096;-53
2023/05/21 00:46:27;;;;;;;19.92;12.85;;;;;;;12.75;100.00;96861.81;4984745;28;20053;-52
2023/05/21 00:48:56;;;;;;;17.20;13.25;;;;;;;13.01;100.00;96862.50;4985161;28;20042;-54
2023/05/21 00:51:24;;;;;;;17.55;12.02;;;;;;;13.13;100.00;96867.59;4990686;28;20142;-48
2023/05/21 00:53:51;;;;;;;16.02;13.18;;;;;;;13.21;100.00;96860.75;4985267;28;20048;-57
2023/05/21 00:56:21;;;;;;;19.63;13.60;;;;;;;12.90;100.00;96868.28;4982798;28;20066;-52
2023/05/21 00:58:50;;;;;;;18.13;13.02;;;;;;;12.77;100.00;96853.38;4983256;28;20092;-54
2023/05/21 01:01:18;;;;;;;17.80;12.30;;;;;;;12.88;100.00;96857.69;4985637;28;20105;-56
2023/05/21 01:03:47;;;;;;;18.35;13.73;;;;;;;12.94;100.00;96853.03;4987629;28;20301;-56
2023/05/21 01:06:14;;;;;;;19.08;13.35;;;;;;;13.01;100.00;96850.81;4985299;28;20042;-53
2023/05/21 01:08:41;;;;;;;18.98;14.18;;;;;;;13.09;100.00;96855.66;4980414;28;20054;-57
2023/05/21 01:11:10;;;;;;;17.67;13.70;;;;;;;12.98;100.00;96854.09;4985910;28;20046;-52
2023/05/21 01:13:39;;;;;;;20.15;13.93;;;;;;;13.03;100.00;96848.63;4985889;28;20039;-53
2023/05/21 01:16:08;;;;;;;17.38;12.90;;;;;;;12.93;100.00;96851.41;4986246;28;20069;-56
2023/05/21 01:18:36;;;;;;;20.10;13.82;;;;;;;12.61;100.00;96845.31;4984967;28;20109;-54
2023/05/21 01:21:04;;;;;;;17.45;13.23;;;;;;;12.51;100.00;96845.34;4983416;28;20134;-56
2023/05/21 01:23:30;;;;;;;21.17;15.20;;;;;;;12.47;100.00;96845.09;4970091;28;20196;-57
2023/05/21 01:25:57;;;;;;;19.83;14.73;;;;;;;12.45;100.00;96850.78;4987908;28;20077;-55
2023/05/21 01:28:24;;;;;;;21.08;15.25;;;;;;;12.36;100.00;96850.53;4990630;28;20038;-56
2023/05/21 01:30:50;;;;;;;21.08;15.05;;;;;;;12.27;100.00;96849.50;4987236;28;20133;-57
2023/05/21 01:33:31;;;;;;;20.33;13.88;;;;;;;12.33;100.00;96834.81;4981204;28;20486;-56
2023/05/21 01:36:15;;;;;;;19.88;14.38;;;;;;;12.24;100.00;96841.91;4984605;28;20080;-54
2023/05/21 01:38:48;;;;;;;19.30;15.02;;;;;;;12.11;100.00;96837.88;4986081;28;20050;-54
2023/05/21 01:41:17;;;;;;;20.90;15.57;;;;;;;11.99;100.00;96843.56;4980996;28;20502;-53
2023/05/21 01:43:45;;;;;;;21.10;15.90;;;;;;;11.99;100.00;96838.13;4983845;28;20030;-55
2023/05/21 01:46:16;;;;;;;19.55;14.85;;;;;;;11.94;100.00;96844.38;4983884;28;20052;-55
2023/05/21 01:48:43;;;;;;;23.73;15.20;;;;;;;11.79;100.00;96836.28;4984537;28;20057;-56
2023/05/21 01:51:10;;;;;;;21.42;15.13;;;;;;;11.66;100.00;96840.34;4984235;28;20433;-51
2023/05/21 01:53:40;;;;;;;22.80;16.27;;;;;;;11.60;100.00;96844.16;4982247;28;20049;-52
2023/05/21 01:56:07;;;;;;;21.42;15.32;;;;;;;11.63;100.00;96840.88;4983955;28;20042;-53
2023/05/21 01:58:33;;;;;;;24.05;16.63;;;;;;;11.66;100.00;96843.88;4982684;28;20089;-52
2023/05/21 02:01:01;;;;;;;21.52;16.02;;;;;;;11.58;100.00;96839.00;4986005;28;20039;-50
2023/05/21 02:03:29;;;;;;;23.17;16.40;;;;;;;11.47;100.00;96840.06;4983316;28;20446;-54
2023/05/21 02:05:56;;;;;;;24.60;15.57;;;;;;;11.48;100.00;96844.41;4982429;28;20053;-52
2023/05/21 02:08:24;;;;;;;22.52;15.73;;;;;;;11.47;100.00;96840.06;4983007;28;20053;-57
2023/05/21 02:10:51;;;;;;;25.80;17.45;;;;;;;11.44;100.00;96844.16;4981847;28;20049;-56
2023/05/21 02:13:21;;;;;;;25.17;16.52;;;;;;;11.39;100.00;96846.84;4983617;28;20109;-53
2023/05/21 02:15:53;;;;;;;24.58;16.75;;;;;;;11.47;100.00;96842.78;4982653;28;20038;-52
2023/05/21 02:18:20;;;;;;;25.65;16.95;;;;;;;11.44;100.00;96839.56;4981203;28;20532;-55
2023/05/21 02:20:47;;;;;;;25.98;16.38;;;;;;;11.44;100.00;96841.44;4983450;28;20116;-56
2023/05/21 02:23:14;;;;;;;23.98;16.08;;;;;;;11.45;100.00;96834.91;4982462;28;20038;-55
2023/05/21 02:25:41;;;;;;;24.90;16.23;;;;;;;11.41;100.00;96845.50;4983806;28;20108;-56
2023/05/21 02:28:07;;;;;;;22.17;16.60;;;;;;;11.40;100.00;96843.06;4984979;28;20234;-55
2023/05/21 02:30:34;;;;;;;24.50;16.88;;;;;;;11.48;100.00;96841.69;4980913;28;20073;-55
2023/05/21 02:33:01;;;;;;;23.23;16.25;;;;;;;11.45;100.00;96834.91;4983610;28;20045;-54
2023/05/21 02:35:28;;;;;;;21.40;16.00;;;;;;;11.47;100.00;96821.09;4985220;28;20137;-53
2023/05/21 02:37:57;;;;;;;22.83;16.35;;;;;;;11.67;100.00;96821.09;5005961;28;20428;-53
2023/05/21 02:40:24;;;;;;;22.02;16.15;;;;;;;11.69;100.00;96821.63;4989006;28;20614;-52
2023/05/21 02:42:51;;;;;;;25.10;16.30;;;;;;;11.59;100.00;96818.94;4985629;28;20494;-54
2023/05/21 02:45:19;;;;;;;23.20;16.15;;;;;;;11.61;100.00;96826.78;4983243;28;20092;-52
2023/05/21 02:47:45;;;;;;;26.20;16.90;;;;;;;11.64;100.00;96820.84;4983719;28;20077;-49
2023/05/21 02:50:15;;;;;;;24.38;17.27;;;;;;;11.55;100.00;96818.66;4981988;28;20050;-52
2023/05/21 02:52:51;;;;;;;23.50;16.50;;;;;;;11.48;100.00;96818.13;4986804;28;20042;-56
2023/05/21 02:55:18;;;;;;;26.55;17.52;;;;;;;11.58;100.00;96834.38;4966960;28;20070;-53
2023/05/21 02:57:45;;;;;;;21.52;15.35;;;;;;;11.58;100.00;96822.72;4976829;28;20068;-55
2023/05/21 03:00:12;;;;;;;23.73;15.23;;;;;;;11.55;100.00;96818.66;4979835;28;20548;-55
2023/05/21 03:02:41;;;;;;;20.67;15.75;;;;;;;11.55;100.00;96818.66;4980429;28;20162;-53
2023/05/21 03:05:09;;;;;;;23.60;16.45;;;;;;;11.55;100.00;96825.97;4983400;28;20628;-56
2023/05/21 03:07:35;;;;;;;26.58;17.15;;;;;;;11.43;100.00;96820.84;4988921;28;20173;-53
2023/05/21 03:10:03;;;;;;;26.52;16.63;;;;;;;11.35;100.00;96829.50;4980957;28;20042;-54
2023/05/21 03:12:29;;;;;;;23.33;16.45;;;;;;;11.44;100.00;96833.31;4981307;28;20070;-53
2023/05/21 03:14:58;;;;;;;23.30;16.02;;;;;;;11.41;100.00;96818.41;4982109;28;20576;-54
2023/05/21 03:17:26;;;;;;;26.25;17.00;;;;;;;11.41;100.00;96815.69;4985850;28;20049;-54
2023/05/21 03:19:53;;;;;;;23.77;15.82;;;;;;;11.51;100.00;96817.59;4981652;28;20057;-51
2023/05/21 03:22:20;;;;;;;23.58;17.20;;;;;;;11.47;100.00;96816.50;4980951;28;20080;-53
2023/05/21 03:24:47;;;;;;;24.67;17.02;;;;;;;11.45;100.00;96822.19;4980128;28;20490;-52
2023/05/21 03:27:14;;;;;;;27.10;18.13;;;;;;;11.48;100.00;96820.00;4986143;28;20082;-50
2023/05/21 03:29:42;;;;;;;25.20;17.20;;;;;;;11.55;100.00;96815.13;4981293;28;20050;-50
2023/05/21 03:32:09;;;;;;;21.20;15.65;;;;;;;11.55;100.00;96824.09;4979717;28;20069;-53
2023/05/21 03:34:36;;;;;;;22.42;16.55;;;;;;;11.62;100.00;96814.84;4985670;28;20363;-49
2023/05/21 03:37:02;;;;;;;24.35;16.25;;;;;;;11.56;100.00;96812.16;4982468;28;20057;-53
2023/05/21 03:39:30;;;;;;;22.48;15.93;;;;;;;11.49;100.00;96818.91;4981782;28;20041;-50
2023/05/21 03:41:58;;;;;;;22.75;15.20;;;;;;;11.54;100.00;96816.22;4978982;28;20498;-50
2023/05/21 03:44:37;;;;;;;21.55;16.17;;;;;;;11.57;100.00;96811.06;4982154;28;20521;-54
2023/05/21 03:47:24;;;;;;;24.23;17.20;;;;;;;11.52;100.00;96807.53;4980062;28;20821;-54
2023/05/21 03:49:52;;;;;;;23.75;16.27;;;;;;;11.44;100.00;96807.03;4984384;28;20046;-55
2023/05/21 03:52:19;;;;;;;24.70;16.20;;;;;;;11.50;100.00;96812.44;4979629;28;20558;-54
2023/05/21 03:54:45;;;;;;;23.13;16.00;;;;;;;11.49;100.00;96813.50;4977467;28;20510;-53
2023/05/21 03:57:12;;;;;;;23.95;16.33;;;;;;;11.52;100.00;96808.38;4983810;28;20117;-51
2023/05/21 03:59:39;;;;;;;23.00;16.40;;;;;;;11.48;100.00;96815.41;4973384;28;20528;-53
2023/05/21 04:02:05;;;;;;;25.75;16.83;;;;;;;11.53;100.00;96820.81;4979856;28;20521;-53
2023/05/21 04:04:33;;;;;;;22.67;16.17;;;;;;;11.67;100.00;96812.97;4978379;28;20049;-49
2023/05/21 04:06:59;;;;;;;24.65;16.63;;;;;;;11.74;100.00;96822.69;4978154;28;20061;-54
2023/05/21 04:09:26;;;;;;;26.27;16.40;;;;;;;11.61;100.00;96824.09;4979101;28;20058;-50
2023/05/21 04:11:53;;;;;;;20.65;15.85;;;;;;;11.62;100.00;96831.13;4976074;28;20410;-50
2023/05/21 04:14:21;;;;;;;24.27;16.98;;;;;;;11.54;100.00;96827.06;4973839;28;20146;-56
2023/05/21 04:16:49;;;;;;;25.23;17.70;;;;;;;11.44;100.00;96833.31;4985246;28;20309;-53
2023/05/21 04:19:16;;;;;;;23.58;17.58;;;;;;;11.29;100.00;96832.22;4978518;28;20050;-50
2023/05/21 04:21:43;;;;;;;23.55;16.33;;;;;;;11.26;100.00;96840.06;4977826;28;20046;-49
2023/05/21 04:24:11;;;;;;;26.27;18.13;;;;;;;11.35;100.00;96848.47;4976218;28;20088;-51
2023/05/21 04:26:54;;;;;;;25.25;17.80;;;;;;;11.37;100.00;96852.53;4970802;28;20046;-56
2023/05/21 04:29:21;;;;;;;27.23;18.20;;;;;;;11.38;100.00;96854.16;4981887;28;20043;-55
2023/05/21 04:31:49;;;;;;;25.23;17.13;;;;;;;11.39;100.00;96849.56;4976638;28;20050;-54
2023/05/21 04:34:16;;;;;;;24.35;17.98;;;;;;;11.44;100.00;96857.69;4985911;28;20065;-51
2023/05/21 04:36:44;;;;;;;28.95;18.05;;;;;;;11.59;100.00;96846.03;4990889;28;20042;-53
2023/05/21 04:39:13;;;;;;;26.67;17.77;;;;;;;11.69;100.00;96840.59;4977689;28;20054;-52
2023/05/21 04:41:39;;;;;;;26.33;16.58;;;;;;;11.70;100.00;96853.09;4979395;28;20502;-52
2023/05/21 04:44:07;;;;;;;25.65;17.98;;;;;;;11.65;100.00;96841.44;4981884;28;20105;-50
2023/05/21 04:46:34;;;;;;;25.95;16.98;;;;;;;11.65;100.00;96850.38;4979774;28;20463;-52
2023/05/21 04:49:04;;;;;;;27.92;19.23;;;;;;;11.73;100.00;96850.91;4984671;28;20054;-52
2023/05/21 04:51:30;;;;;;;25.05;17.60;;;;;;;11.76;100.00;96853.88;4979163;28;20046;-52
2023/05/21 04:53:57;;;;;;;24.90;17.73;;;;;;;11.82;100.00;96852.81;4978775;28;20050;-50
2023/05/21 04:56:26;;;;;;;23.98;16.55;;;;;;;11.90;100.00;96856.06;4977753;28;20133;-52
2023/05/21 04:58:53;;;;;;;26.90;17.27;;;;;;;12.00;100.00;96858.75;4978066;28;20448;-49
2023/05/21 05:01:24;;;;;;;23.70;16.70;;;;;;;12.01;100.00;96846.00;4977345;28;20403;-51
2023/05/21 05:03:51;;;;;;;22.65;16.42;;;;;;;12.00;100.00;96861.47;4976958;28;20236;-53
2023/05/21 05:06:18;;;;;;;26.23;18.40;;;;;;;12.00;100.00;96856.03;4979017;28;20490;-53
2023/05/21 05:08:45;;;;;;;25.02;16.70;;;;;;;12.01;100.00;96854.16;4976242;28;20052;-53
2023/05/21 05:11:13;;;;;;;22.88;17.08;;;;;;;12.08;100.00;96857.41;4974326;28;20291;-52
2023/05/21 05:13:42;;;;;;;23.63;16.38;;;;;;;12.15;100.00;96859.84;4974301;28;20530;-51
2023/05/21 05:16:10;;;;;;;23.98;17.25;;;;;;;12.13;100.00;96846.56;4976829;28;20046;-51
2023/05/21 05:18:36;;;;;;;21.65;16.05;;;;;;;12.27;100.00;96846.78;4979548;28;20253;-52
2023/05/21 05:21:03;;;;;;;25.30;17.42;;;;;;;12.33;100.00;96859.25;4977103;28;20054;-51
2023/05/21 05:23:30;;;;;;;23.90;17.73;;;;;;;12.40;100.00;96842.69;4975889;28;20038;-50
2023/05/21 05:25:57;;;;;;;25.10;17.35;;;;;;;12.46;100.00;96849.69;4975957;28;20806;-53
2023/05/21 05:28:23;;;;;;;24.65;17.13;;;;;;;12.57;100.00;96846.97;4985589;28;20038;-57
2023/05/21 05:30:50;;;;;;;25.13;15.70;;;;;;;12.61;100.00;96843.41;4980056;28;20662;-53
2023/05/21 05:33:23;;;;;;;22.48;16.27;;;;;;;12.74;100.00;96843.88;4980646;28;20042;-55
2023/05/21 05:35:49;;;;;;;25.40;17.92;;;;;;;12.65;100.00;96846.38;4980586;28;20057;-55
2023/05/21 05:38:16;;;;;;;25.05;16.60;;;;;;;12.83;100.00;96844.91;4984188;28;20441;-53
2023/05/21 05:40:43;;;;;;;25.75;18.25;;;;;;;12.80;100.00;96845.50;4983030;28;20603;-55
2023/05/21 05:43:10;;;;;;;25.50;18.63;;;;;;;12.67;100.00;96846.91;4980843;28;20046;-55
2023/05/21 05:45:36;;;;;;;24.45;17.20;;;;;;;12.79;100.00;96852.00;4977603;28;20065;-55
2023/05/21 05:48:09;;;;;;;23.85;17.65;;;;;;;12.85;100.00;96853.63;4984466;28;20137;-53
2023/05/21 05:50:35;;;;;;;23.63;17.92;;;;;;;12.94;100.00;96850.31;4977721;28;20498;-52
2023/05/21 05:53:02;;;;;;;24.27;18.20;;;;;;;13.07;100.00;96852.41;4980119;28;20049;-56
2023/05/21 05:55:28;;;;;;;26.15;18.40;;;;;;;13.17;100.00;96848.00;4991173;28;20046;-54
2023/05/21 05:57:55;;;;;;;26.80;17.30;;;;;;;13.29;100.00;96853.91;4979707;28;20453;-52
2023/05/21 06:00:21;;;;;;;24.33;17.73;;;;;;;13.49;100.00;96857.59;4990248;28;20038;-53
2023/05/21 06:02:49;;;;;;;25.85;17.55;;;;;;;13.64;100.00;96851.25;4987600;28;20134;-52
2023/05/21 06:05:16;;;;;;;22.00;15.73;;;;;;;13.81;100.00;96848.09;4986041;28;20047;-49
2023/05/21 06:07:43;;;;;;;23.45;16.90;;;;;;;13.90;100.00;96856.44;4984460;28;20050;-51
2023/05/21 06:10:09;;;;;;;23.02;16.27;;;;;;;14.09;100.00;96858.44;4984206;28;20042;-55
2023/05/21 06:12:36;;;;;;;18.38;14.18;;;;;;;14.29;100.00;96857.41;4989053;28;20041;-54
2023/05/21 06:15:04;;;;;;;20.70;15.45;;;;;;;14.51;100.00;96862.34;4993430;28;20310;-57
2023/05/21 06:17:31;;;;;;;20.17;14.82;;;;;;;14.68;100.00;96863.78;4995453;28;20096;-56
2023/05/21 06:19:59;;;;;;;18.95;14.43;;;;;;;14.81;100.00;96857.66;4987815;28;20429;-52
2023/05/21 06:22:26;;;;;;;18.90;13.32;;;;;;;14.95;100.00;96860.47;4984978;28;20442;-57
2023/05/21 06:24:53;;;;;;;19.23;13.82;;;;;;;15.21;100.00;96856.56;4984252;28;20034;-54
2023/05/21 06:27:20;;;;;;;18.85;14.23;;;;;;;15.37;100.00;96853.63;4983010;28;20039;-58
2023/05/21 06:29:47;;;;;;;18.63;12.80;;;;;;;15.47;100.00;96853.47;4982795;28;20421;-53
2023/05/21 06:32:14;;;;;;;17.88;12.13;;;;;;;15.71;99.34;96847.09;4983455;28;20101;-57
2023/05/21 06:34:41;;;;;;;19.08;12.15;;;;;;;15.88;96.82;96856.66;4982570;28;20046;-51
2023/05/21 06:37:07;;;;;;;16.75;12.35;;;;;;;15.96;96.18;96845.84;4982482;28;20463;-51
2023/05/21 06:39:34;;;;;;;18.75;13.20;;;;;;;16.07;95.64;96845.69;4983969;28;20081;-54
2023/05/21 06:42:01;;;;;;;16.15;12.15;;;;;;;16.21;94.77;96848.41;4983468;28;20486;-57
2023/05/21 06:44:51;;;;;;;15.75;12.15;;;;;;;16.37;94.86;96854.44;4981402;28;20130;-55
2023/05/21 06:47:25;;;;;;;15.90;11.50;;;;;;;16.45;91.63;96852.91;4983456;28;20049;-52
2023/05/21 06:49:52;;;;;;;16.20;11.70;;;;;;;16.58;90.88;96859.50;4982523;28;20040;-53
2023/05/21 06:52:18;;;;;;;15.13;11.13;;;;;;;16.72;89.48;96859.47;4982480;28;20042;-53
2023/05/21 06:54:45;;;;;;;15.40;11.40;;;;;;;16.79;90.15;96854.41;4982802;28;20578;-52
2023/05/21 06:57:13;;;;;;;15.00;10.15;;;;;;;16.85;89.34;96857.84;4988606;28;20620;-51
2023/05/21 06:59:41;;;;;;;14.60;11.25;;;;;;;17.01;88.27;96859.16;4981686;28;20042;-55
2023/05/21 07:02:07;;;;;;;13.98;10.00;;;;;;;17.04;85.64;96852.25;4982801;28;20528;-53
2023/05/21 07:04:34;;;;;;;17.20;11.63;;;;;;;17.12;86.77;96854.28;4983866;28;20040;-51
2023/05/21 07:07:03;;;;;;;15.40;10.40;;;;;;;17.22;85.65;96857.91;4982269;28;20533;-55
2023/05/21 07:09:30;;;;;;;13.30;10.25;;;;;;;17.37;85.20;96852.09;4979290;28;20549;-55
2023/05/21 07:11:57;;;;;;;14.63;10.43;;;;;;;17.42;83.76;96851.16;4987386;28;20049;-54
2023/05/21 07:14:24;;;;;;;12.05;8.95;;;;;;;17.57;82.18;96858.19;4979555;28;20046;-56
2023/05/21 07:16:51;;;;;;;15.23;10.80;;;;;;;17.44;83.59;96851.66;4977095;28;20046;-51
2023/05/21 07:19:18;;;;;;;14.38;10.93;;;;;;;17.42;83.88;96853.88;4979953;28;20399;-52
2023/05/21 07:21:45;;;;;;;12.07;9.25;;;;;;;17.33;83.00;96858.47;4978423;28;20046;-55
2023/05/21 07:24:11;;;;;;;14.27;10.23;;;;;;;17.31;83.02;96855.25;4985541;28;20092;-54
2023/05/21 07:26:39;;;;;;;14.20;10.80;;;;;;;17.32;82.50;96851.41;4982310;28;20145;-55
2023/05/21 07:29:06;;;;;;;13.80;10.18;;;;;;;17.36;82.83;96857.88;4979263;28;20044;-55
2023/05/21 07:31:32;;;;;;;15.50;10.93;;;;;;;17.31;83.97;96856.03;4982222;28;20054;-53
2023/05/21 07:33:59;;;;;;;15.48;11.75;;;;;;;17.37;84.67;96860.31;4986902;28;20113;-56
2023/05/21 07:36:29;;;;;;;15.20;10.30;;;;;;;17.46;83.65;96859.56;4989097;28;20537;-53
2023/05/21 07:38:57;;;;;;;13.68;10.35;;;;;;;17.51;82.72;96859.44;4983188;28;20124;-53
2023/05/21 07:41:25;;;;;;;14.48;10.02;;;;;;;17.60;82.32;96854.00;4983942;28;20425;-52
2023/05/21 07:43:51;;;;;;;12.85;10.27;;;;;;;17.70;82.55;96855.69;4985221;28;20034;-59
2023/05/21 07:46:18;;;;;;;14.55;10.23;;;;;;;17.63;81.91;96856.13;4996229;28;20433;-54
2023/05/21 07:48:48;;;;;;;17.80;11.75;;;;;;;17.56;83.37;96862.03;4978948;28;20058;-53
2023/05/21 07:51:16;;;;;;;15.90;11.48;;;;;;;17.59;82.69;96861.44;4985741;28;20580;-54
2023/05/21 07:53:42;;;;;;;14.63;11.63;;;;;;;17.64;83.42;96858.56;4983274;28;20076;-55
2023/05/21 07:56:12;;;;;;;14.88;11.07;;;;;;;17.63;81.62;96850.66;4977933;28;20050;-57
2023/05/21 07:58:39;;;;;;;14.25;10.23;;;;;;;17.77;81.63;96848.66;4977491;28;20056;-57
2023/05/21 08:01:06;;;;;;;15.85;11.38;;;;;;;17.72;80.90;96848.78;4979068;28;20100;-56
2023/05/21 08:03:33;;;;;;;15.20;10.43;;;;;;;17.59;81.94;96853.22;4979487;28;20081;-55
2023/05/21 08:06:00;;;;;;;15.30;11.07;;;;;;;17.65;82.55;96851.97;4977509;28;20381;-48
2023/05/21 08:08:27;;;;;;;18.02;12.45;;;;;;;17.50;83.70;96846.84;4977911;28;20054;-53
2023/05/21 08:10:55;;;;;;;14.38;10.95;;;;;;;17.81;82.34;96854.34;4977749;28;20042;-52
2023/05/21 08:13:24;;;;;;;15.55;11.32;;;;;;;17.90;81.49;96848.91;4980215;28;20057;-52
2023/05/21 08:15:51;;;;;;;14.95;9.65;;;;;;;18.02;80.77;96856.56;4978289;28;20097;-57
2023/05/21 08:18:22;;;;;;;14.55;10.18;;;;;;;18.15;80.56;96849.38;4976289;28;20521;-56
2023/05/21 08:20:50;;;;;;;13.30;10.18;;;;;;;18.31;79.07;96852.53;4991819;28;21247;-54
2023/05/21 08:23:18;;;;;;;12.88;10.52;;;;;;;18.24;79.96;96844.75;4995371;28;20520;-55
2023/05/21 08:25:49;;;;;;;13.32;11.30;;;;;;;18.24;80.17;96846.72;4985536;28;20050;-58
2023/05/21 08:28:16;;;;;;;15.65;10.90;;;;;;;18.36;81.09;96846.09;4984486;28;20041;-55
2023/05/21 08:30:42;;;;;;;15.75;11.32;;;;;;;18.37;79.01;96837.56;4984302;28;20056;-52
2023/05/21 08:33:09;;;;;;;13.25;10.23;;;;;;;18.64;78.83;96841.19;4991275;28;20041;-53
2023/05/21 08:35:37;;;;;;;12.95;10.20;;;;;;;18.83;77.28;96856.56;4987340;28;20506;-52
2023/05/21 08:38:13;;;;;;;13.45;10.00;;;;;;;18.98;77.79;96855.31;4983870;28;20164;-51
2023/05/21 08:40:53;;;;;;;14.23;11.20;;;;;;;19.10;75.69;96868.44;4986620;28;20527;-49
2023/05/21 08:43:20;;;;;;;14.93;10.07;;;;;;;19.04;75.18;96858.72;4984753;28;20125;-50
2023/05/21 08:45:57;;;;;;;12.93;9.93;;;;;;;19.28;75.79;96858.31;4989895;28;20427;-52
2023/05/21 08:48:28;;;;;;;13.50;10.20;;;;;;;19.34;72.76;96859.75;4987601;28;20378;-50
2023/05/21 08:50:55;;;;;;;14.88;10.65;;;;;;;19.32;71.43;96858.47;4990906;28;20053;-50
2023/05/21 08:53:32;;;;;;;12.10;9.40;;;;;;;19.44;71.20;96864.13;4980803;28;20046;-50
2023/05/21 08:55:58;;;;;;;15.23;10.25;;;;;;;19.64;70.27;96864.56;4978436;28;20584;-51
2023/05/21 08:58:44;;;;;;;11.85;9.05;;;;;;;19.81;66.31;96855.53;4990135;28;20088;-55
2023/05/21 09:01:11;;;;;;;12.68;9.40;;;;;;;19.95;67.80;96860.03;5017646;28;20441;-56
2023/05/21 09:03:42;;;;;;;12.70;9.32;;;;;;;20.08;68.30;96858.25;4996550;28;20235;-57
2023/05/21 09:06:12;;;;;;;14.93;10.65;;;;;;;20.06;68.62;96868.75;4989359;28;20050;-56
2023/05/21 09:08:44;;;;;;;14.85;9.40;;;;;;;20.17;66.99;96864.53;4990418;28;20049;-56
2023/05/21 09:11:20;;;;;;;11.45;9.02;;;;;;;20.10;65.95;96869.72;4983676;28;20038;-56
2023/05/21 09:13:53;;;;;;;12.88;9.50;;;;;;;20.37;66.17;96864.94;4998650;28;20394;-50
2023/05/21 09:16:27;;;;;;;16.20;10.00;;;;;;;20.33;64.23;96863.97;4995732;28;20054;-55
2023/05/21 09:18:53;;;;;;;12.75;8.52;;;;;;;20.52;64.71;96860.84;4990915;28;20344;-50
2023/05/21 09:21:30;;;;;;;11.23;9.20;;;;;;;20.62;63.07;96859.66;4984421;28;20048;-50
2023/05/21 09:24:09;;;;;;;12.07;9.07;;;;;;;20.86;63.50;96861.00;4980976;28;20042;-51
2023/05/21 09:26:36;;;;;;;11.60;9.55;;;;;;;20.97;61.95;96862.25;4981455;28;20096;-54
2023/05/21 09:29:05;;;;;;;11.55;9.35;;;;;;;20.97;62.11;96862.25;4984904;28;20104;-51
2023/05/21 09:31:31;;;;;;;11.45;8.23;;;;;;;21.05;60.54;96855.88;4984133;28;20054;-53
2023/05/21 09:33:59;;;;;;;11.23;8.32;;;;;;;21.03;60.99;96857.38;5001514;28;20053;-54
2023/05/21 09:36:28;;;;;;;12.45;8.52;;;;;;;21.26;60.71;96859.81;4985371;28;20047;-56
2023/05/21 09:38:57;;;;;;;11.25;8.05;;;;;;;21.41;59.79;96861.94;4999280;28;20082;-56
2023/05/21 09:41:31;;;;;;;10.95;8.43;;;;;;;21.72;59.10;96854.41;4984396;28;20121;-56
2023/05/21 09:44:00;;;;;;;14.15;9.27;;;;;;;21.95;59.13;96860.38;4989828;28;20432;-55
2023/05/21 09:46:26;;;;;;;11.98;8.60;;;;;;;22.12;58.37;96855.03;4980720;28;20422;-56
2023/05/21 09:48:53;;;;;;;12.88;9.07;;;;;;;21.88;60.29;96853.78;4988460;28;20054;-54
2023/05/21 09:51:20;;;;;;;14.80;9.40;;;;;;;21.84;60.11;96859.19;4982511;28;20569;-53
2023/05/21 09:53:56;;;;;;;11.43;9.27;;;;;;;21.95;59.55;96856.81;4987547;28;20200;-56
2023/05/21 09:56:23;;;;;;;11.75;8.02;;;;;;;;;;4975312;28;20046;-53
2023/05/21 09:58:55;;;;;;;11.60;8.95;;;;;;;21.86;58.44;96865.19;4979910;28;21990;-53
2023/05/21 10:01:25;;;;;;;11.60;9.65;;;;;;;21.84;58.40;96867.44;4979606;28;20065;-56
2023/05/21 10:03:57;;;;;;;11.90;9.63;;;;;;;21.75;58.71;96866.72;4985042;28;20050;-53
2023/05/21 10:06:25;;;;;;;;;;;;;;;21.92;58.87;96858.28;4980161;28;20129;-54
2023/05/21 10:08:55;;;;;;;14.90;9.35;;;;;;;22.01;58.38;96860.97;4981200;28;20190;-51
2023/05/21 10:11:28;;;;;;;14.48;9.27;;;;;;;22.17;57.84;96868.56;5004269;28;20405;-52
2023/05/21 10:14:06;;;;;;;12.25;9.07;;;;;;;22.21;58.13;96862.06;4992891;28;20524;-53
2023/05/21 10:16:35;;;;;;;13.30;8.85;;;;;;;22.37;57.53;96864.13;4983344;28;20465;-50
2023/05/21 10:19:03;;;;;;;12.52;9.40;;;;;;;22.05;59.11;96867.41;4989323;28;20315;-54
2023/05/21 10:21:32;;;;;;;10.35;8.75;;;;;;;22.28;57.27;96857.91;4983247;28;20116;-55
2023/05/21 10:24:01;;;;;;;11.82;8.68;;;;;;;22.52;55.67;96857.13;4973101;28;20315;-56
2023/05/21 10:26:29;;;;;;;12.25;8.30;;;;;;;22.35;56.89;96858.97;4981028;28;20262;-54
2023/05/21 10:28:58;;;;;;;14.73;8.95;;;;;;;22.27;56.25;96857.13;4981048;28;20034;-55
2023/05/21 10:31:26;;;;;;;10.77;8.20;;;;;;;22.55;55.82;96852.94;4980503;28;20048;-56
2023/05/21 10:33:54;;;;;;;13.02;9.52;;;;;;;22.34;56.48;96854.59;4980357;28;20423;-54
2023/05/21 10:36:23;;;;;;;10.43;8.38;;;;;;;22.45;56.23;96865.97;4985268;28;20038;-56
2023/05/21 10:38:49;;;;;;;11.05;9.13;;;;;;;22.56;54.83;96865.56;4979284;28;20217;-51
2023/05/21 10:41:19;;;;;;;13.73;8.40;;;;;;;22.30;56.54;96858.41;4988852;28;20104;-52
2023/05/21 10:44:08;;;;;;;9.60;8.32;;;;;;;22.40;56.18;96859.91;4995835;28;20053;-53
2023/05/21 10:47:11;;;;;;;9.65;8.10;;;;;;;22.47;55.67;96865.63;4977400;28;20100;-52
2023/05/21 10:50:10;;;;;;;11.27;8.65;;;;;;;22.35;55.67;96856.22;4982221;28;20436;-50
2023/05/21 10:53:14;;;;;;;10.15;8.07;;;;;;;22.63;53.82;96862.25;4973616;28;20093;-49
2023/05/21 10:55:47;;;;;;;10.95;8.25;;;;;;;22.93;52.22;96853.72;4983123;28;20058;-50
2023/05/21 10:58:31;;;;;;;10.20;7.50;;;;;;;23.15;52.11;96852.44;4980264;28;20050;-51
2023/05/21 11:00:58;;;;;;;13.13;8.52;;;;;;;23.06;50.72;96860.03;4987065;28;20038;-49
2023/05/21 11:03:27;;;;;;;11.48;7.57;;;;;;;22.78;52.25;96856.06;4991849;28;20074;-50
2023/05/21 11:05:55;;;;;;;10.50;7.75;;;;;;;23.13;51.07;96851.97;4985854;28;20038;-53
2023/05/21 11:08:24;;;;;;;10.57;7.55;;;;;;;23.32;50.11;96847.78;4989087;28;20046;-56
2023/05/21 11:10:53;;;;;;;10.50;7.90;;;;;;;22.88;51.55;96846.47;4985820;28;20077;-56
2023/05/21 11:13:20;;;;;;;10.85;8.00;;;;;;;23.28;50.72;96846.91;4990871;28;20034;-54
2023/05/21 11:16:00;;;;;;;10.27;7.05;;;;;;;23.25;50.57;96854.72;4979715;28;20631;-55
2023/05/21 11:18:32;;;;;;;10.13;6.72;;;;;;;23.55;49.54;96863.88;4983739;28;20108;-55
2023/05/21 11:21:08;;;;;;;9.45;6.78;;;;;;;23.70;49.38;96854.81;4982430;28;20160;-54
2023/05/21 11:23:50;;;;;;;9.40;6.78;;;;;;;23.94;48.69;96861.41;4984290;28;20042;-56